sensor_id;sensor_type;location;lat;lon;timestamp;P1;durP1;ratioP1;P2;durP2;ratioP2
2041;SDS011;1026;51.460;7.252;2023-07-13T00:00:10;2.30;;;1.90;;
2041;SDS011;1026;51.460;7.252;2023-07-13T00:02:45;1.70;;;1.50;;
2041;SDS011;1026;51.460;7.252;2023-07-13T00:05:18;1.83;;;1.73;;
2041;SDS011;1026;51.460;7.252;2023-07-13T00:07:53;2.07;;;1.90;;
2041;SDS011;1026;51.460;7.252;2023-07-13T00:10:21;2.00;;;1.80;;
2041;SDS011;1026;51.460;7.252;2023-07-13T00:12:48;1.80;;;1.70;;
2041;SDS011;1026;51.460;7.252;2023-07-13T00:15:23;2.70;;;2.50;;
2041;SDS011;1026;51.460;7.252;2023-07-13T00:17:57;2.10;;;2.00;;
2041;SDS011;1026;51.460;7.252;2023-07-13T00:20:25;2.60;;;2.00;;
2041;SDS011;1026;51.460;7.252;2023-07-13T00:22:58;2.67;;;1.90;;
2041;SDS011;1026;51.460;7.252;2023-07-13T00:25:25;1.83;;;1.70;;
2041;SDS011;1026;51.460;7.252;2023-07-13T00:27:54;1.90;;;1.70;;
2041;SDS011;1026;51.460;7.252;2023-07-13T00:30:28;2.67;;;2.17;;
2041;SDS011;1026;51.460;7.252;2023-07-13T00:32:55;2.10;;;2.00;;
2041;SDS011;1026;51.460;7.252;2023-07-13T00:35:42;2.00;;;1.50;;
2041;SDS011;1026;51.460;7.252;2023-07-13T00:38:16;1.60;;;1.50;;
2041;SDS011;1026;51.460;7.252;2023-07-13T00:40:57;2.00;;;1.90;;
2041;SDS011;1026;51.460;7.252;2023-07-13T00:43:31;2.33;;;1.63;;
2041;SDS011;1026;51.460;7.252;2023-07-13T00:46:09;1.63;;;1.50;;
2041;SDS011;1026;51.460;7.252;2023-07-13T00:48:46;2.97;;;2.10;;
2041;SDS011;1026;51.460;7.252;2023-07-13T00:51:27;1.90;;;1.80;;
2041;SDS011;1026;51.460;7.252;2023-07-13T00:54:00;1.97;;;1.77;;
2041;SDS011;1026;51.460;7.252;2023-07-13T00:56:43;1.77;;;1.67;;
2041;SDS011;1026;51.460;7.252;2023-07-13T00:59:11;1.60;;;1.50;;
2041;SDS011;1026;51.460;7.252;2023-07-13T01:01:48;1.97;;;1.87;;
2041;SDS011;1026;51.460;7.252;2023-07-13T01:04:25;2.07;;;1.97;;
2041;SDS011;1026;51.460;7.252;2023-07-13T01:07:06;1.70;;;1.60;;
2041;SDS011;1026;51.460;7.252;2023-07-13T01:09:33;1.50;;;1.40;;
2041;SDS011;1026;51.460;7.252;2023-07-13T01:12:00;3.23;;;1.67;;
2041;SDS011;1026;51.460;7.252;2023-07-13T01:14:34;2.20;;;1.70;;
2041;SDS011;1026;51.460;7.252;2023-07-13T01:17:00;1.93;;;1.83;;
2041;SDS011;1026;51.460;7.252;2023-07-13T01:19:36;1.77;;;1.67;;
2041;SDS011;1026;51.460;7.252;2023-07-13T01:22:16;1.90;;;1.80;;
2041;SDS011;1026;51.460;7.252;2023-07-13T01:24:52;3.23;;;1.63;;
2041;SDS011;1026;51.460;7.252;2023-07-13T01:27:26;1.93;;;1.60;;
2041;SDS011;1026;51.460;7.252;2023-07-13T01:29:54;1.80;;;1.70;;
2041;SDS011;1026;51.460;7.252;2023-07-13T01:32:34;2.13;;;1.40;;
2041;SDS011;1026;51.460;7.252;2023-07-13T01:35:03;1.63;;;1.53;;
2041;SDS011;1026;51.460;7.252;2023-07-13T01:37:37;3.03;;;2.33;;
2041;SDS011;1026;51.460;7.252;2023-07-13T01:40:05;1.60;;;1.50;;
2041;SDS011;1026;51.460;7.252;2023-07-13T01:42:38;2.93;;;1.70;;
2041;SDS011;1026;51.460;7.252;2023-07-13T01:45:06;1.70;;;1.60;;
2041;SDS011;1026;51.460;7.252;2023-07-13T01:47:33;2.10;;;1.53;;
2041;SDS011;1026;51.460;7.252;2023-07-13T01:50:06;2.50;;;1.53;;
2041;SDS011;1026;51.460;7.252;2023-07-13T01:52:41;1.70;;;1.60;;
2041;SDS011;1026;51.460;7.252;2023-07-13T01:55:15;1.60;;;1.50;;
2041;SDS011;1026;51.460;7.252;2023-07-13T01:57:42;1.50;;;1.40;;
2041;SDS011;1026;51.460;7.252;2023-07-13T02:00:09;1.83;;;1.30;;
2041;SDS011;1026;51.460;7.252;2023-07-13T02:02:43;1.30;;;1.20;;
2041;SDS011;1026;51.460;7.252;2023-07-13T02:05:18;1.73;;;1.63;;
2041;SDS011;1026;51.460;7.252;2023-07-13T02:07:59;2.40;;;2.20;;
2041;SDS011;1026;51.460;7.252;2023-07-13T02:10:33;1.70;;;1.43;;
2041;SDS011;1026;51.460;7.252;2023-07-13T02:13:07;1.63;;;1.13;;
2041;SDS011;1026;51.460;7.252;2023-07-13T02:15:37;1.20;;;1.10;;
2041;SDS011;1026;51.460;7.252;2023-07-13T02:18:06;2.03;;;1.70;;
2041;SDS011;1026;51.460;7.252;2023-07-13T02:20:40;1.73;;;1.40;;
2041;SDS011;1026;51.460;7.252;2023-07-13T02:23:07;1.43;;;1.30;;
2041;SDS011;1026;51.460;7.252;2023-07-13T02:25:35;1.73;;;1.60;;
2041;SDS011;1026;51.460;7.252;2023-07-13T02:28:09;1.67;;;1.50;;
2041;SDS011;1026;51.460;7.252;2023-07-13T02:30:43;1.63;;;1.20;;
2041;SDS011;1026;51.460;7.252;2023-07-13T02:33:10;1.43;;;1.33;;
2041;SDS011;1026;51.460;7.252;2023-07-13T02:35:37;1.70;;;1.57;;
2041;SDS011;1026;51.460;7.252;2023-07-13T02:38:11;1.40;;;1.30;;
2041;SDS011;1026;51.460;7.252;2023-07-13T02:40:38;1.43;;;1.33;;
2041;SDS011;1026;51.460;7.252;2023-07-13T02:43:05;4.10;;;1.50;;
2041;SDS011;1026;51.460;7.252;2023-07-13T02:45:39;2.60;;;1.27;;
2041;SDS011;1026;51.460;7.252;2023-07-13T02:48:10;2.03;;;1.67;;
2041;SDS011;1026;51.460;7.252;2023-07-13T02:50:44;1.33;;;1.23;;
2041;SDS011;1026;51.460;7.252;2023-07-13T02:53:18;1.40;;;1.30;;
2041;SDS011;1026;51.460;7.252;2023-07-13T02:55:45;2.00;;;1.60;;
2041;SDS011;1026;51.460;7.252;2023-07-13T02:58:13;1.67;;;1.53;;
2041;SDS011;1026;51.460;7.252;2023-07-13T03:00:49;1.90;;;1.40;;
2041;SDS011;1026;51.460;7.252;2023-07-13T03:03:16;1.40;;;1.30;;
2041;SDS011;1026;51.460;7.252;2023-07-13T03:05:57;2.00;;;1.70;;
2041;SDS011;1026;51.460;7.252;2023-07-13T03:08:31;1.80;;;1.40;;
2041;SDS011;1026;51.460;7.252;2023-07-13T03:10:59;1.70;;;1.30;;
2041;SDS011;1026;51.460;7.252;2023-07-13T03:13:28;1.50;;;1.30;;
2041;SDS011;1026;51.460;7.252;2023-07-13T03:16:02;3.13;;;1.53;;
2041;SDS011;1026;51.460;7.252;2023-07-13T03:18:36;1.40;;;1.20;;
2041;SDS011;1026;51.460;7.252;2023-07-13T03:21:04;1.30;;;1.20;;
2041;SDS011;1026;51.460;7.252;2023-07-13T03:23:38;2.10;;;1.30;;
2041;SDS011;1026;51.460;7.252;2023-07-13T03:26:07;2.73;;;1.70;;
2041;SDS011;1026;51.460;7.252;2023-07-13T03:28:47;1.83;;;1.30;;
2041;SDS011;1026;51.460;7.252;2023-07-13T03:31:16;1.43;;;1.27;;
2041;SDS011;1026;51.460;7.252;2023-07-13T03:33:56;4.60;;;1.43;;
2041;SDS011;1026;51.460;7.252;2023-07-13T03:36:25;1.57;;;1.47;;
2041;SDS011;1026;51.460;7.252;2023-07-13T03:38:55;1.57;;;1.10;;
2041;SDS011;1026;51.460;7.252;2023-07-13T03:41:30;1.53;;;1.30;;
2041;SDS011;1026;51.460;7.252;2023-07-13T03:43:58;1.50;;;1.40;;
2041;SDS011;1026;51.460;7.252;2023-07-13T03:46:31;3.50;;;1.33;;
2041;SDS011;1026;51.460;7.252;2023-07-13T03:49:04;2.37;;;1.33;;
2041;SDS011;1026;51.460;7.252;2023-07-13T03:51:31;1.70;;;1.23;;
2041;SDS011;1026;51.460;7.252;2023-07-13T03:54:05;2.63;;;1.50;;
2041;SDS011;1026;51.460;7.252;2023-07-13T03:56:32;1.50;;;1.40;;
2041;SDS011;1026;51.460;7.252;2023-07-13T03:59:06;1.40;;;1.30;;
2041;SDS011;1026;51.460;7.252;2023-07-13T04:01:32;3.00;;;1.50;;
2041;SDS011;1026;51.460;7.252;2023-07-13T04:04:07;1.40;;;1.30;;
2041;SDS011;1026;51.460;7.252;2023-07-13T04:06:48;1.47;;;1.00;;
2041;SDS011;1026;51.460;7.252;2023-07-13T04:09:22;1.47;;;1.37;;
2041;SDS011;1026;51.460;7.252;2023-07-13T04:11:56;1.93;;;1.57;;
2041;SDS011;1026;51.460;7.252;2023-07-13T04:14:23;1.83;;;1.70;;
2041;SDS011;1026;51.460;7.252;2023-07-13T04:16:57;1.30;;;1.20;;
2041;SDS011;1026;51.460;7.252;2023-07-13T04:19:24;3.13;;;1.37;;
2041;SDS011;1026;51.460;7.252;2023-07-13T04:21:58;1.53;;;1.20;;
2041;SDS011;1026;51.460;7.252;2023-07-13T04:24:25;2.17;;;1.50;;
2041;SDS011;1026;51.460;7.252;2023-07-13T04:26:59;2.30;;;1.00;;
2041;SDS011;1026;51.460;7.252;2023-07-13T04:29:32;1.93;;;1.23;;
2041;SDS011;1026;51.460;7.252;2023-07-13T04:32:06;2.00;;;1.30;;
2041;SDS011;1026;51.460;7.252;2023-07-13T04:34:33;1.03;;;0.90;;
2041;SDS011;1026;51.460;7.252;2023-07-13T04:37:08;1.60;;;1.33;;
2041;SDS011;1026;51.460;7.252;2023-07-13T04:39:34;1.30;;;1.20;;
2041;SDS011;1026;51.460;7.252;2023-07-13T04:42:09;2.30;;;1.30;;
2041;SDS011;1026;51.460;7.252;2023-07-13T04:44:36;3.30;;;1.47;;
2041;SDS011;1026;51.460;7.252;2023-07-13T04:47:09;3.03;;;1.50;;
2041;SDS011;1026;51.460;7.252;2023-07-13T04:49:36;1.60;;;1.10;;
2041;SDS011;1026;51.460;7.252;2023-07-13T04:52:10;1.57;;;1.47;;
2041;SDS011;1026;51.460;7.252;2023-07-13T04:54:44;1.50;;;1.40;;
2041;SDS011;1026;51.460;7.252;2023-07-13T04:57:11;1.03;;;1.03;;
2041;SDS011;1026;51.460;7.252;2023-07-13T04:59:47;1.40;;;1.30;;
2041;SDS011;1026;51.460;7.252;2023-07-13T05:02:14;3.37;;;1.43;;
2041;SDS011;1026;51.460;7.252;2023-07-13T05:04:41;1.50;;;1.40;;
2041;SDS011;1026;51.460;7.252;2023-07-13T05:07:15;3.23;;;1.67;;
2041;SDS011;1026;51.460;7.252;2023-07-13T05:09:55;1.77;;;1.30;;
2041;SDS011;1026;51.460;7.252;2023-07-13T05:12:22;1.73;;;1.63;;
2041;SDS011;1026;51.460;7.252;2023-07-13T05:14:56;1.47;;;1.30;;
2041;SDS011;1026;51.460;7.252;2023-07-13T05:17:30;2.60;;;1.47;;
2041;SDS011;1026;51.460;7.252;2023-07-13T05:19:57;3.57;;;1.60;;
2041;SDS011;1026;51.460;7.252;2023-07-13T05:22:31;2.30;;;1.90;;
2041;SDS011;1026;51.460;7.252;2023-07-13T05:24:58;1.67;;;1.47;;
2041;SDS011;1026;51.460;7.252;2023-07-13T05:27:32;1.83;;;1.67;;
2041;SDS011;1026;51.460;7.252;2023-07-13T05:30:00;1.50;;;1.03;;
2041;SDS011;1026;51.460;7.252;2023-07-13T05:32:27;1.27;;;1.07;;
2041;SDS011;1026;51.460;7.252;2023-07-13T05:35:05;2.40;;;1.43;;
2041;SDS011;1026;51.460;7.252;2023-07-13T05:37:39;1.83;;;1.20;;
2041;SDS011;1026;51.460;7.252;2023-07-13T05:40:13;1.20;;;1.10;;
2041;SDS011;1026;51.460;7.252;2023-07-13T05:42:47;1.70;;;1.20;;
2041;SDS011;1026;51.460;7.252;2023-07-13T05:45:21;2.47;;;1.57;;
2041;SDS011;1026;51.460;7.252;2023-07-13T05:50:32;2.07;;;1.40;;
2041;SDS011;1026;51.460;7.252;2023-07-13T05:53:18;2.50;;;1.40;;
2041;SDS011;1026;51.460;7.252;2023-07-13T05:55:52;2.30;;;1.00;;
2041;SDS011;1026;51.460;7.252;2023-07-13T05:58:20;2.43;;;1.03;;
2041;SDS011;1026;51.460;7.252;2023-07-13T06:00:47;1.20;;;1.10;;
2041;SDS011;1026;51.460;7.252;2023-07-13T06:03:21;2.20;;;1.40;;
2041;SDS011;1026;51.460;7.252;2023-07-13T06:06:01;1.43;;;1.33;;
2041;SDS011;1026;51.460;7.252;2023-07-13T06:08:42;1.43;;;1.10;;
2041;SDS011;1026;51.460;7.252;2023-07-13T06:11:16;2.10;;;1.20;;
2041;SDS011;1026;51.460;7.252;2023-07-13T06:13:45;2.00;;;1.30;;
2041;SDS011;1026;51.460;7.252;2023-07-13T06:16:12;2.40;;;1.20;;
2041;SDS011;1026;51.460;7.252;2023-07-13T06:18:47;2.10;;;1.50;;
2041;SDS011;1026;51.460;7.252;2023-07-13T06:21:18;1.50;;;1.00;;
2041;SDS011;1026;51.460;7.252;2023-07-13T06:23:53;2.07;;;1.30;;
2041;SDS011;1026;51.460;7.252;2023-07-13T06:26:20;2.40;;;1.27;;
2041;SDS011;1026;51.460;7.252;2023-07-13T06:28:47;1.30;;;1.20;;
2041;SDS011;1026;51.460;7.252;2023-07-13T06:31:21;2.17;;;1.50;;
2041;SDS011;1026;51.460;7.252;2023-07-13T06:33:48;4.10;;;1.33;;
2041;SDS011;1026;51.460;7.252;2023-07-13T06:36:21;1.70;;;1.10;;
2041;SDS011;1026;51.460;7.252;2023-07-13T06:38:47;4.87;;;1.70;;
2041;SDS011;1026;51.460;7.252;2023-07-13T06:41:21;1.70;;;1.50;;
2041;SDS011;1026;51.460;7.252;2023-07-13T06:43:48;1.30;;;1.20;;
2041;SDS011;1026;51.460;7.252;2023-07-13T06:46:15;1.77;;;1.23;;
2041;SDS011;1026;51.460;7.252;2023-07-13T06:48:49;2.53;;;1.70;;
2041;SDS011;1026;51.460;7.252;2023-07-13T06:51:16;1.83;;;1.30;;
2041;SDS011;1026;51.460;7.252;2023-07-13T06:53:50;2.60;;;1.20;;
2041;SDS011;1026;51.460;7.252;2023-07-13T06:56:17;3.30;;;1.87;;
2041;SDS011;1026;51.460;7.252;2023-07-13T06:58:44;3.50;;;2.10;;
2041;SDS011;1026;51.460;7.252;2023-07-13T07:01:17;5.37;;;2.20;;
2041;SDS011;1026;51.460;7.252;2023-07-13T07:03:56;2.73;;;1.90;;
2041;SDS011;1026;51.460;7.252;2023-07-13T07:06:37;3.37;;;1.67;;
2041;SDS011;1026;51.460;7.252;2023-07-13T07:09:10;2.77;;;1.60;;
2041;SDS011;1026;51.460;7.252;2023-07-13T07:11:37;5.53;;;2.37;;
2041;SDS011;1026;51.460;7.252;2023-07-13T07:14:15;2.50;;;2.10;;
2041;SDS011;1026;51.460;7.252;2023-07-13T07:16:49;3.87;;;1.80;;
2041;SDS011;1026;51.460;7.252;2023-07-13T07:19:16;1.60;;;1.43;;
2041;SDS011;1026;51.460;7.252;2023-07-13T07:21:43;3.47;;;1.70;;
2041;SDS011;1026;51.460;7.252;2023-07-13T07:24:17;2.53;;;1.57;;
2041;SDS011;1026;51.460;7.252;2023-07-13T07:26:44;1.90;;;1.80;;
2041;SDS011;1026;51.460;7.252;2023-07-13T07:29:14;3.83;;;1.53;;
2041;SDS011;1026;51.460;7.252;2023-07-13T07:31:51;2.37;;;1.53;;
2041;SDS011;1026;51.460;7.252;2023-07-13T07:34:30;2.50;;;1.67;;
2041;SDS011;1026;51.460;7.252;2023-07-13T07:37:04;3.53;;;1.50;;
2041;SDS011;1026;51.460;7.252;2023-07-13T07:39:34;3.23;;;1.30;;
2041;SDS011;1026;51.460;7.252;2023-07-13T07:42:01;1.83;;;1.73;;
2041;SDS011;1026;51.460;7.252;2023-07-13T07:44:35;2.20;;;2.00;;
2041;SDS011;1026;51.460;7.252;2023-07-13T07:47:09;3.00;;;1.90;;
2041;SDS011;1026;51.460;7.252;2023-07-13T07:49:36;1.73;;;1.60;;
2041;SDS011;1026;51.460;7.252;2023-07-13T07:52:04;2.80;;;2.10;;
2041;SDS011;1026;51.460;7.252;2023-07-13T07:54:38;2.90;;;1.80;;
2041;SDS011;1026;51.460;7.252;2023-07-13T07:57:14;2.93;;;1.83;;
2041;SDS011;1026;51.460;7.252;2023-07-13T07:59:50;3.40;;;1.80;;
2041;SDS011;1026;51.460;7.252;2023-07-13T08:02:20;5.50;;;1.67;;
2041;SDS011;1026;51.460;7.252;2023-07-13T08:05:03;2.03;;;1.30;;
2041;SDS011;1026;51.460;7.252;2023-07-13T08:08:04;2.00;;;1.00;;
2041;SDS011;1026;51.460;7.252;2023-07-13T08:10:38;2.53;;;1.55;;
2041;SDS011;1026;51.460;7.252;2023-07-13T08:13:12;3.13;;;1.80;;
2041;SDS011;1026;51.460;7.252;2023-07-13T08:15:46;3.57;;;1.70;;
2041;SDS011;1026;51.460;7.252;2023-07-13T08:18:13;2.17;;;1.70;;
2041;SDS011;1026;51.460;7.252;2023-07-13T08:20:41;7.13;;;2.00;;
2041;SDS011;1026;51.460;7.252;2023-07-13T08:23:15;2.80;;;1.80;;
2041;SDS011;1026;51.460;7.252;2023-07-13T08:25:42;3.00;;;1.80;;
2041;SDS011;1026;51.460;7.252;2023-07-13T08:28:23;1.50;;;1.40;;
2041;SDS011;1026;51.460;7.252;2023-07-13T08:30:50;3.37;;;1.87;;
2041;SDS011;1026;51.460;7.252;2023-07-13T08:33:20;3.23;;;2.47;;
2041;SDS011;1026;51.460;7.252;2023-07-13T08:35:56;2.30;;;1.50;;
2041;SDS011;1026;51.460;7.252;2023-07-13T08:38:23;2.27;;;1.80;;
2041;SDS011;1026;51.460;7.252;2023-07-13T08:40:56;3.67;;;2.10;;
2041;SDS011;1026;51.460;7.252;2023-07-13T08:43:34;1.87;;;1.77;;
2041;SDS011;1026;51.460;7.252;2023-07-13T08:46:19;1.87;;;1.70;;
2041;SDS011;1026;51.460;7.252;2023-07-13T08:48:56;2.53;;;1.67;;
2041;SDS011;1026;51.460;7.252;2023-07-13T08:51:45;2.93;;;1.73;;
2041;SDS011;1026;51.460;7.252;2023-07-13T08:54:19;2.00;;;1.30;;
2041;SDS011;1026;51.460;7.252;2023-07-13T08:57:01;1.83;;;1.70;;
2041;SDS011;1026;51.460;7.252;2023-07-13T08:59:43;1.50;;;1.40;;
2041;SDS011;1026;51.460;7.252;2023-07-13T09:02:20;3.37;;;2.00;;
2041;SDS011;1026;51.460;7.252;2023-07-13T09:05:25;1.87;;;1.67;;
2041;SDS011;1026;51.460;7.252;2023-07-13T09:11:34;2.57;;;1.80;;
2041;SDS011;1026;51.460;7.252;2023-07-13T09:14:42;2.23;;;1.20;;
2041;SDS011;1026;51.460;7.252;2023-07-13T09:17:28;1.83;;;1.70;;
2041;SDS011;1026;51.460;7.252;2023-07-13T09:23:05;4.27;;;1.87;;
2041;SDS011;1026;51.460;7.252;2023-07-13T09:25:39;1.57;;;1.40;;
2041;SDS011;1026;51.460;7.252;2023-07-13T09:28:25;2.73;;;1.60;;
2041;SDS011;1026;51.460;7.252;2023-07-13T09:31:01;4.13;;;2.30;;
2041;SDS011;1026;51.460;7.252;2023-07-13T09:33:42;2.50;;;1.80;;
2041;SDS011;1026;51.460;7.252;2023-07-13T09:36:23;2.20;;;1.63;;
2041;SDS011;1026;51.460;7.252;2023-07-13T09:42:18;1.60;;;1.50;;
2041;SDS011;1026;51.460;7.252;2023-07-13T09:44:58;3.73;;;1.93;;
2041;SDS011;1026;51.460;7.252;2023-07-13T09:47:29;2.43;;;2.23;;
2041;SDS011;1026;51.460;7.252;2023-07-13T09:50:10;2.60;;;1.73;;
2041;SDS011;1026;51.460;7.252;2023-07-13T09:52:44;2.97;;;2.40;;
2041;SDS011;1026;51.460;7.252;2023-07-13T09:55:35;2.30;;;1.90;;
2041;SDS011;1026;51.460;7.252;2023-07-13T09:58:08;2.20;;;2.00;;
2041;SDS011;1026;51.460;7.252;2023-07-13T10:00:54;3.00;;;1.70;;
2041;SDS011;1026;51.460;7.252;2023-07-13T10:03:29;1.90;;;1.80;;
2041;SDS011;1026;51.460;7.252;2023-07-13T10:06:12;1.93;;;1.57;;
2041;SDS011;1026;51.460;7.252;2023-07-13T10:08:49;2.70;;;1.77;;
2041;SDS011;1026;51.460;7.252;2023-07-13T10:11:28;1.70;;;1.60;;
2041;SDS011;1026;51.460;7.252;2023-07-13T10:13:58;2.47;;;2.03;;
2041;SDS011;1026;51.460;7.252;2023-07-13T10:16:35;1.90;;;1.80;;
2041;SDS011;1026;51.460;7.252;2023-07-13T10:19:08;2.17;;;1.97;;
2041;SDS011;1026;51.460;7.252;2023-07-13T10:22:27;2.47;;;2.27;;
2041;SDS011;1026;51.460;7.252;2023-07-13T10:24:59;2.73;;;2.00;;
2041;SDS011;1026;51.460;7.252;2023-07-13T10:27:35;2.30;;;1.93;;
2041;SDS011;1026;51.460;7.252;2023-07-13T10:30:14;2.13;;;1.57;;
2041;SDS011;1026;51.460;7.252;2023-07-13T10:32:49;1.57;;;1.47;;
2041;SDS011;1026;51.460;7.252;2023-07-13T10:35:23;4.73;;;2.20;;
2041;SDS011;1026;51.460;7.252;2023-07-13T10:37:54;2.10;;;1.90;;
2041;SDS011;1026;51.460;7.252;2023-07-13T10:40:41;4.57;;;1.87;;
2041;SDS011;1026;51.460;7.252;2023-07-13T10:43:22;3.60;;;1.80;;
2041;SDS011;1026;51.460;7.252;2023-07-13T10:46:00;3.13;;;2.30;;
2041;SDS011;1026;51.460;7.252;2023-07-13T10:48:36;2.30;;;1.63;;
2041;SDS011;1026;51.460;7.252;2023-07-13T10:51:05;2.23;;;1.63;;
2041;SDS011;1026;51.460;7.252;2023-07-13T10:53:40;1.63;;;1.50;;
2041;SDS011;1026;51.460;7.252;2023-07-13T10:59:12;2.50;;;1.50;;
2041;SDS011;1026;51.460;7.252;2023-07-13T11:05:32;3.80;;;2.63;;
2041;SDS011;1026;51.460;7.252;2023-07-13T11:08:16;2.93;;;2.63;;
2041;SDS011;1026;51.460;7.252;2023-07-13T11:14:38;2.03;;;1.50;;
2041;SDS011;1026;51.460;7.252;2023-07-13T11:29:39;1.73;;;1.60;;
2041;SDS011;1026;51.460;7.252;2023-07-13T11:32:22;2.57;;;2.20;;
2041;SDS011;1026;51.460;7.252;2023-07-13T11:34:59;1.93;;;1.73;;
2041;SDS011;1026;51.460;7.252;2023-07-13T11:37:26;2.33;;;2.10;;
2041;SDS011;1026;51.460;7.252;2023-07-13T11:39:56;2.37;;;1.97;;
2041;SDS011;1026;51.460;7.252;2023-07-13T11:42:45;2.13;;;1.83;;
2041;SDS011;1026;51.460;7.252;2023-07-13T11:45:19;1.97;;;1.87;;
2041;SDS011;1026;51.460;7.252;2023-07-13T11:48:23;2.13;;;1.90;;
2041;SDS011;1026;51.460;7.252;2023-07-13T11:51:03;2.40;;;1.97;;
2041;SDS011;1026;51.460;7.252;2023-07-13T11:53:38;2.40;;;1.87;;
2041;SDS011;1026;51.460;7.252;2023-07-13T11:56:19;2.50;;;2.00;;
2041;SDS011;1026;51.460;7.252;2023-07-13T11:58:50;4.53;;;2.40;;
2041;SDS011;1026;51.460;7.252;2023-07-13T12:01:28;2.93;;;2.10;;
2041;SDS011;1026;51.460;7.252;2023-07-13T12:04:03;2.73;;;2.37;;
2041;SDS011;1026;51.460;7.252;2023-07-13T12:06:45;2.57;;;2.30;;
2041;SDS011;1026;51.460;7.252;2023-07-13T12:09:13;2.10;;;1.90;;
2041;SDS011;1026;51.460;7.252;2023-07-13T12:11:50;2.33;;;2.13;;
2041;SDS011;1026;51.460;7.252;2023-07-13T12:14:18;2.40;;;2.20;;
2041;SDS011;1026;51.460;7.252;2023-07-13T12:16:52;2.03;;;1.83;;
2041;SDS011;1026;51.460;7.252;2023-07-13T12:19:21;2.50;;;2.30;;
2041;SDS011;1026;51.460;7.252;2023-07-13T12:21:57;3.80;;;1.93;;
2041;SDS011;1026;51.460;7.252;2023-07-13T12:24:25;3.10;;;2.03;;
2041;SDS011;1026;51.460;7.252;2023-07-13T12:26:54;2.40;;;2.20;;
2041;SDS011;1026;51.460;7.252;2023-07-13T12:29:36;2.37;;;2.20;;
2041;SDS011;1026;51.460;7.252;2023-07-13T12:32:03;3.57;;;2.07;;
2041;SDS011;1026;51.460;7.252;2023-07-13T12:34:49;2.77;;;2.57;;
2041;SDS011;1026;51.460;7.252;2023-07-13T12:37:27;4.07;;;2.40;;
2041;SDS011;1026;51.460;7.252;2023-07-13T12:40:01;3.30;;;2.57;;
2041;SDS011;1026;51.460;7.252;2023-07-13T12:42:37;1.80;;;1.70;;
2041;SDS011;1026;51.460;7.252;2023-07-13T12:45:24;2.67;;;2.47;;
2041;SDS011;1026;51.460;7.252;2023-07-13T12:48:13;2.27;;;2.00;;
2041;SDS011;1026;51.460;7.252;2023-07-13T12:50:45;2.40;;;1.90;;
2041;SDS011;1026;51.460;7.252;2023-07-13T12:53:22;2.50;;;2.30;;
2041;SDS011;1026;51.460;7.252;2023-07-13T12:55:55;3.00;;;1.80;;
2041;SDS011;1026;51.460;7.252;2023-07-13T12:58:36;2.37;;;2.20;;
2041;SDS011;1026;51.460;7.252;2023-07-13T13:01:04;2.07;;;1.93;;
2041;SDS011;1026;51.460;7.252;2023-07-13T13:03:39;2.07;;;1.87;;
2041;SDS011;1026;51.460;7.252;2023-07-13T13:06:20;2.93;;;2.73;;
2041;SDS011;1026;51.460;7.252;2023-07-13T13:09:05;2.50;;;2.30;;
2041;SDS011;1026;51.460;7.252;2023-07-13T13:11:44;2.33;;;2.13;;
2041;SDS011;1026;51.460;7.252;2023-07-13T13:14:11;1.87;;;1.77;;
2041;SDS011;1026;51.460;7.252;2023-07-13T13:16:48;2.47;;;2.23;;
2041;SDS011;1026;51.460;7.252;2023-07-13T13:19:25;2.50;;;2.30;;
2041;SDS011;1026;51.460;7.252;2023-07-13T13:22:00;3.80;;;2.10;;
2041;SDS011;1026;51.460;7.252;2023-07-13T13:24:35;2.00;;;1.90;;
2041;SDS011;1026;51.460;7.252;2023-07-13T13:27:02;2.37;;;1.80;;
2041;SDS011;1026;51.460;7.252;2023-07-13T13:29:36;2.53;;;2.43;;
2041;SDS011;1026;51.460;7.252;2023-07-13T13:32:09;1.80;;;1.70;;
2041;SDS011;1026;51.460;7.252;2023-07-13T13:34:47;1.80;;;1.70;;
2041;SDS011;1026;51.460;7.252;2023-07-13T13:37:18;2.33;;;2.13;;
2041;SDS011;1026;51.460;7.252;2023-07-13T13:39:56;2.30;;;2.20;;
2041;SDS011;1026;51.460;7.252;2023-07-13T13:42:33;3.30;;;1.93;;
2041;SDS011;1026;51.460;7.252;2023-07-13T13:45:09;2.47;;;2.07;;
2041;SDS011;1026;51.460;7.252;2023-07-13T13:47:37;2.17;;;1.97;;
2041;SDS011;1026;51.460;7.252;2023-07-13T13:50:15;2.23;;;2.10;;
2041;SDS011;1026;51.460;7.252;2023-07-13T13:52:50;2.07;;;1.50;;
2041;SDS011;1026;51.460;7.252;2023-07-13T13:55:19;2.13;;;2.00;;
2041;SDS011;1026;51.460;7.252;2023-07-13T13:57:53;2.00;;;1.70;;
2041;SDS011;1026;51.460;7.252;2023-07-13T14:00:20;1.87;;;1.77;;
2041;SDS011;1026;51.460;7.252;2023-07-13T14:02:53;2.20;;;2.00;;
2041;SDS011;1026;51.460;7.252;2023-07-13T14:05:30;2.90;;;2.23;;
2041;SDS011;1026;51.460;7.252;2023-07-13T14:08:15;2.40;;;2.20;;
2041;SDS011;1026;51.460;7.252;2023-07-13T14:10:53;2.17;;;2.07;;
2041;SDS011;1026;51.460;7.252;2023-07-13T14:13:34;2.80;;;2.60;;
2041;SDS011;1026;51.460;7.252;2023-07-13T14:16:10;1.90;;;1.80;;
2041;SDS011;1026;51.460;7.252;2023-07-13T14:18:46;2.90;;;1.83;;
2041;SDS011;1026;51.460;7.252;2023-07-13T14:21:21;2.60;;;2.10;;
2041;SDS011;1026;51.460;7.252;2023-07-13T14:23:49;2.80;;;2.60;;
2041;SDS011;1026;51.460;7.252;2023-07-13T14:26:20;2.17;;;1.90;;
2041;SDS011;1026;51.460;7.252;2023-07-13T14:28:56;1.80;;;1.70;;
2041;SDS011;1026;51.460;7.252;2023-07-13T14:31:24;2.50;;;2.10;;
2041;SDS011;1026;51.460;7.252;2023-07-13T14:34:01;2.20;;;1.93;;
2041;SDS011;1026;51.460;7.252;2023-07-13T14:36:30;2.47;;;2.27;;
2041;SDS011;1026;51.460;7.252;2023-07-13T14:38:59;3.30;;;2.27;;
2041;SDS011;1026;51.460;7.252;2023-07-13T14:41:50;2.00;;;1.90;;
2041;SDS011;1026;51.460;7.252;2023-07-13T14:44:26;2.47;;;2.27;;
2041;SDS011;1026;51.460;7.252;2023-07-13T14:47:05;2.70;;;2.13;;
2041;SDS011;1026;51.460;7.252;2023-07-13T14:49:37;2.80;;;1.93;;
2041;SDS011;1026;51.460;7.252;2023-07-13T14:52:16;2.80;;;2.20;;
2041;SDS011;1026;51.460;7.252;2023-07-13T14:54:46;2.83;;;2.37;;
2041;SDS011;1026;51.460;7.252;2023-07-13T14:57:21;2.60;;;2.40;;
2041;SDS011;1026;51.460;7.252;2023-07-13T14:59:48;3.43;;;2.30;;
2041;SDS011;1026;51.460;7.252;2023-07-13T15:02:16;2.80;;;2.30;;
2041;SDS011;1026;51.460;7.252;2023-07-13T15:05:01;2.93;;;2.63;;
2041;SDS011;1026;51.460;7.252;2023-07-13T15:07:44;2.70;;;2.50;;
2041;SDS011;1026;51.460;7.252;2023-07-13T15:10:20;2.50;;;2.30;;
2041;SDS011;1026;51.460;7.252;2023-07-13T15:12:51;2.47;;;2.27;;
2041;SDS011;1026;51.460;7.252;2023-07-13T15:15:26;2.30;;;2.10;;
2041;SDS011;1026;51.460;7.252;2023-07-13T15:17:54;3.60;;;3.27;;
2041;SDS011;1026;51.460;7.252;2023-07-13T15:20:29;2.50;;;2.30;;
2041;SDS011;1026;51.460;7.252;2023-07-13T15:22:59;2.37;;;2.17;;
2041;SDS011;1026;51.460;7.252;2023-07-13T15:25:33;2.90;;;2.60;;
2041;SDS011;1026;51.460;7.252;2023-07-13T15:28:06;3.00;;;2.40;;
2041;SDS011;1026;51.460;7.252;2023-07-13T15:30:36;6.50;;;3.10;;
2041;SDS011;1026;51.460;7.252;2023-07-13T15:33:22;2.60;;;2.37;;
2041;SDS011;1026;51.460;7.252;2023-07-13T15:35:59;2.77;;;2.57;;
2041;SDS011;1026;51.460;7.252;2023-07-13T15:38:33;2.50;;;2.33;;
2041;SDS011;1026;51.460;7.252;2023-07-13T15:41:10;3.33;;;2.47;;
2041;SDS011;1026;51.460;7.252;2023-07-13T15:43:56;2.40;;;2.20;;
2041;SDS011;1026;51.460;7.252;2023-07-13T15:46:33;2.30;;;2.10;;
2041;SDS011;1026;51.460;7.252;2023-07-13T15:49:00;2.00;;;1.90;;
2041;SDS011;1026;51.460;7.252;2023-07-13T15:51:34;2.00;;;1.90;;
2041;SDS011;1026;51.460;7.252;2023-07-13T15:54:08;2.70;;;2.50;;
2041;SDS011;1026;51.460;7.252;2023-07-13T15:56:47;2.60;;;2.40;;
2041;SDS011;1026;51.460;7.252;2023-07-13T15:59:20;3.20;;;2.50;;
2041;SDS011;1026;51.460;7.252;2023-07-13T16:01:54;3.80;;;2.97;;
2041;SDS011;1026;51.460;7.252;2023-07-13T16:04:21;2.30;;;2.00;;
2041;SDS011;1026;51.460;7.252;2023-07-13T16:06:48;2.40;;;2.30;;
2041;SDS011;1026;51.460;7.252;2023-07-13T16:09:23;3.07;;;2.57;;
2041;SDS011;1026;51.460;7.252;2023-07-13T16:11:52;2.67;;;2.47;;
2041;SDS011;1026;51.460;7.252;2023-07-13T16:14:28;3.23;;;2.57;;
2041;SDS011;1026;51.460;7.252;2023-07-13T16:16:55;5.40;;;3.07;;
2041;SDS011;1026;51.460;7.252;2023-07-13T16:19:28;2.90;;;2.60;;
2041;SDS011;1026;51.460;7.252;2023-07-13T16:22:03;3.13;;;2.50;;
2041;SDS011;1026;51.460;7.252;2023-07-13T16:24:31;2.70;;;2.37;;
2041;SDS011;1026;51.460;7.252;2023-07-13T16:26:58;2.93;;;2.43;;
2041;SDS011;1026;51.460;7.252;2023-07-13T16:29:34;2.60;;;2.40;;
2041;SDS011;1026;51.460;7.252;2023-07-13T16:32:02;2.60;;;2.40;;